createdAt,value
2022-10-05T00:00:26.227Z,14.10
2022-10-05T00:02:54.412Z,14.10
2022-10-05T00:05:32.108Z,14.00
2022-10-05T00:08:10.914Z,14.10
2022-10-05T00:10:41.458Z,14.00
2022-10-05T00:13:16.916Z,14.00
2022-10-05T00:15:44.302Z,14.00
2022-10-05T00:18:21.753Z,14.00
2022-10-05T00:20:49.892Z,14.00
2022-10-05T00:23:18.495Z,14.00
2022-10-05T00:25:45.495Z,14.00
2022-10-05T00:28:27.922Z,14.00
2022-10-05T00:30:59.424Z,14.00
2022-10-05T00:33:27.755Z,14.00
2022-10-05T00:35:55.464Z,14.00
2022-10-05T00:38:22.850Z,13.90
2022-10-05T00:41:08.235Z,13.90
2022-10-05T00:44:08.667Z,13.90
2022-10-05T00:46:54.471Z,13.90
2022-10-05T00:49:51.435Z,13.90
2022-10-05T00:53:03.825Z,13.90
2022-10-05T00:55:49.223Z,13.90
2022-10-05T00:58:41.972Z,13.90
2022-10-05T01:01:13.638Z,13.80
2022-10-05T01:03:52.391Z,13.80
2022-10-05T01:06:44.685Z,13.80
2022-10-05T01:09:17.867Z,13.80
2022-10-05T01:12:00.112Z,13.80
2022-10-05T01:14:38.747Z,13.80
2022-10-05T01:17:30.273Z,13.70
2022-10-05T01:20:20.067Z,13.60
2022-10-05T01:23:24.587Z,13.60
2022-10-05T01:26:30.462Z,13.50
2022-10-05T01:29:16.758Z,13.30
2022-10-05T01:32:03.342Z,13.30
2022-10-05T01:34:44.382Z,13.30
2022-10-05T01:37:37.300Z,13.20
2022-10-05T01:40:29.811Z,13.10
2022-10-05T01:43:07.181Z,13.10
2022-10-05T01:45:53.049Z,13.10
2022-10-05T01:48:47.936Z,12.90
2022-10-05T01:51:30.067Z,12.90
2022-10-05T01:54:20.801Z,12.80
2022-10-05T01:57:32.177Z,12.70
2022-10-05T01:59:59.548Z,12.70
2022-10-05T02:02:31.800Z,12.60
2022-10-05T02:05:19.250Z,12.50
2022-10-05T02:08:01.055Z,12.50
2022-10-05T02:10:43.865Z,12.40
2022-10-05T02:13:24.581Z,12.40
2022-10-05T02:15:58.337Z,12.30
2022-10-05T02:18:34.129Z,12.30
2022-10-05T02:21:05.733Z,12.30
2022-10-05T02:23:36.704Z,12.30
2022-10-05T02:26:05.018Z,12.20
2022-10-05T02:28:46.747Z,12.30
2022-10-05T02:31:30.645Z,12.30
2022-10-05T02:34:21.163Z,12.30
2022-10-05T02:37:15.208Z,12.20
2022-10-05T02:39:49.324Z,12.20
2022-10-05T02:42:33.107Z,12.10
2022-10-05T02:45:52.658Z,12.10
2022-10-05T02:48:25.802Z,12.00
2022-10-05T02:51:04.968Z,12.10
2022-10-05T02:53:58.873Z,12.00
2022-10-05T02:56:31.900Z,12.00
2022-10-05T02:59:22.098Z,11.90
2022-10-05T03:01:56.294Z,11.90
2022-10-05T03:04:37.901Z,11.90
2022-10-05T03:07:14.673Z,11.80
2022-10-05T03:09:57.642Z,11.90
2022-10-05T03:12:46.031Z,11.90
2022-10-05T03:15:16.144Z,12.00
2022-10-05T03:18:14.139Z,12.00
2022-10-05T03:21:10.404Z,12.00
2022-10-05T03:23:51.060Z,12.00
2022-10-05T03:26:49.035Z,12.00
2022-10-05T03:29:44.160Z,12.00
2022-10-05T03:32:24.462Z,12.00
2022-10-05T03:35:05.288Z,11.90
2022-10-05T03:37:49.990Z,11.80
2022-10-05T03:40:26.645Z,11.90
2022-10-05T03:43:03.660Z,11.90
2022-10-05T03:45:42.616Z,11.90
2022-10-05T03:48:24.901Z,11.90
2022-10-05T03:51:03.813Z,11.90
2022-10-05T03:53:44.006Z,12.00
2022-10-05T03:56:18.421Z,12.00
2022-10-05T03:58:50.791Z,11.90
2022-10-05T04:01:25.856Z,11.90
2022-10-05T04:03:58.523Z,11.80
2022-10-05T04:06:38.435Z,11.80
2022-10-05T04:09:14.013Z,11.70
2022-10-05T04:12:19.195Z,11.70
2022-10-05T04:15:18.832Z,11.80
2022-10-05T04:17:54.488Z,11.80
2022-10-05T04:20:52.070Z,11.80
2022-10-05T04:23:44.287Z,11.80
2022-10-05T04:26:43.797Z,11.80
2022-10-05T04:29:38.492Z,11.80
2022-10-05T04:32:26.795Z,11.80
2022-10-05T04:35:06.553Z,11.90
2022-10-05T04:37:53.841Z,12.00
2022-10-05T04:40:26.794Z,12.00
2022-10-05T04:42:56.979Z,11.90
2022-10-05T04:45:36.384Z,11.90
2022-10-05T04:48:24.210Z,11.80
2022-10-05T04:51:12.913Z,11.90
2022-10-05T04:53:44.026Z,11.90
2022-10-05T04:56:42.044Z,11.90
2022-10-05T04:59:35.106Z,11.90
2022-10-05T05:02:21.197Z,12.00
2022-10-05T05:05:18.279Z,12.00
2022-10-05T05:08:09.468Z,12.00
2022-10-05T05:11:16.321Z,12.10
2022-10-05T05:14:06.663Z,12.10
2022-10-05T05:16:45.935Z,12.00
2022-10-05T05:19:28.789Z,12.00
2022-10-05T05:21:59.671Z,12.00
2022-10-05T05:24:50.829Z,11.90
2022-10-05T05:27:36.554Z,11.90
2022-10-05T05:30:21.572Z,11.80
2022-10-05T05:33:12.773Z,11.80
2022-10-05T05:35:59.133Z,11.80
2022-10-05T05:38:47.440Z,11.70
2022-10-05T05:41:22.646Z,11.70
2022-10-05T05:44:02.375Z,11.60
2022-10-05T05:47:03.098Z,11.60
2022-10-05T05:49:53.231Z,11.70
2022-10-05T05:52:24.194Z,11.70
2022-10-05T05:55:20.895Z,11.60
2022-10-05T05:57:56.504Z,11.60
2022-10-05T06:00:46.555Z,11.70
2022-10-05T06:03:21.005Z,11.80
2022-10-05T06:05:53.906Z,11.80
2022-10-05T06:08:30.951Z,11.80
2022-10-05T06:11:11.529Z,11.80
2022-10-05T06:13:43.185Z,11.80
2022-10-05T06:16:39.098Z,11.70
2022-10-05T06:19:13.333Z,11.60
2022-10-05T06:22:04.245Z,11.70
2022-10-05T06:25:13.285Z,11.70
2022-10-05T06:28:06.479Z,11.60
2022-10-05T06:31:04.875Z,11.60
2022-10-05T06:33:38.997Z,11.70
2022-10-05T06:36:12.098Z,11.70
2022-10-05T06:39:01.999Z,11.70
2022-10-05T06:41:57.543Z,11.70
2022-10-05T06:45:22.375Z,11.60
2022-10-05T06:48:35.881Z,11.60
2022-10-05T06:51:50.868Z,11.70
2022-10-05T06:55:00.083Z,11.70
2022-10-05T06:57:44.748Z,11.70
2022-10-05T07:00:37.824Z,11.70
2022-10-05T07:03:22.136Z,11.70
2022-10-05T07:06:03.884Z,11.80
2022-10-05T07:08:57.005Z,11.70
2022-10-05T07:11:36.508Z,11.70
2022-10-05T07:14:18.524Z,11.70
2022-10-05T07:16:48.518Z,11.80
2022-10-05T07:19:44.277Z,11.80
2022-10-05T07:22:46.306Z,11.90
2022-10-05T07:25:23.392Z,12.00
2022-10-05T07:27:57.067Z,12.10
2022-10-05T07:30:24.559Z,12.10
2022-10-05T07:33:21.058Z,12.20
2022-10-05T07:36:26.941Z,12.30
2022-10-05T07:39:06.074Z,12.30
2022-10-05T07:41:48.024Z,12.40
2022-10-05T07:44:36.469Z,12.50
2022-10-05T07:47:16.936Z,12.60
2022-10-05T07:50:02.522Z,12.60
2022-10-05T07:52:42.031Z,12.70
2022-10-05T07:55:21.501Z,12.70
2022-10-05T07:58:16.276Z,12.80
2022-10-05T08:01:14.317Z,12.80
2022-10-05T08:03:56.688Z,12.90
2022-10-05T08:06:27.139Z,12.90
2022-10-05T08:09:01.931Z,13.00
2022-10-05T08:11:42.175Z,13.10
2022-10-05T08:15:00.496Z,13.00
2022-10-05T08:17:51.980Z,13.00
2022-10-05T08:20:24.868Z,13.00
2022-10-05T08:23:00.857Z,13.00
2022-10-05T08:25:56.718Z,12.90
2022-10-05T08:28:25.815Z,12.90
2022-10-05T08:31:08.075Z,13.00
2022-10-05T08:33:59.613Z,13.10
2022-10-05T08:37:07.015Z,13.10
2022-10-05T08:39:41.005Z,13.10
2022-10-05T08:42:38.995Z,13.10
2022-10-05T08:45:27.129Z,13.10
2022-10-05T08:48:12.181Z,13.10
2022-10-05T08:51:00.408Z,13.10
2022-10-05T08:53:39.376Z,13.10
2022-10-05T08:56:34.286Z,13.20
2022-10-05T08:59:44.853Z,13.20
2022-10-05T09:02:30.626Z,13.30
2022-10-05T09:05:26.754Z,13.20
2022-10-05T09:08:20.310Z,13.20
2022-10-05T09:11:11.805Z,13.20
2022-10-05T09:14:18.265Z,13.30
2022-10-05T09:17:01.215Z,13.20
2022-10-05T09:19:28.029Z,13.30
2022-10-05T09:22:24.399Z,13.30
2022-10-05T09:24:54.329Z,13.40
2022-10-05T09:27:36.260Z,13.40
2022-10-05T09:30:31.136Z,13.40
2022-10-05T09:33:03.759Z,13.40
2022-10-05T09:36:07.929Z,13.50
2022-10-05T09:38:41.359Z,13.50
2022-10-05T09:41:17.690Z,13.60
2022-10-05T09:44:14.915Z,13.60
2022-10-05T09:47:09.701Z,13.60
2022-10-05T09:50:14.262Z,13.70
2022-10-05T09:53:12.659Z,13.80
2022-10-05T09:55:42.372Z,13.80
2022-10-05T09:58:28.317Z,13.90
2022-10-05T10:01:35.592Z,13.90
2022-10-05T10:04:41.388Z,14.00
2022-10-05T10:07:36.239Z,14.00
2022-10-05T10:10:15.370Z,14.00
2022-10-05T10:12:48.488Z,14.00
2022-10-05T10:15:40.601Z,14.00
2022-10-05T10:18:16.527Z,14.00
2022-10-05T10:20:58.848Z,14.10
2022-10-05T10:23:45.431Z,14.20
2022-10-05T10:26:16.183Z,14.30
2022-10-05T10:28:52.243Z,14.30
2022-10-05T10:31:38.832Z,14.30
2022-10-05T10:34:44.129Z,14.30
2022-10-05T10:37:42.008Z,14.30
2022-10-05T10:40:17.709Z,14.30
2022-10-05T10:43:08.957Z,14.30
2022-10-05T10:45:48.223Z,14.30
2022-10-05T10:48:30.490Z,14.30
2022-10-05T10:51:12.685Z,14.30
2022-10-05T10:54:08.651Z,14.30
2022-10-05T10:56:46.674Z,14.30
2022-10-05T10:59:30.850Z,14.30
2022-10-05T11:02:04.846Z,14.30
2022-10-05T11:05:09.618Z,14.20
2022-10-05T11:07:59.743Z,14.20
2022-10-05T11:10:46.233Z,14.20
2022-10-05T11:14:02.626Z,14.30
2022-10-05T11:16:32.517Z,14.30
2022-10-05T11:19:05.329Z,14.30
2022-10-05T11:22:12.447Z,14.30
2022-10-05T11:25:17.034Z,14.20
2022-10-05T11:27:43.944Z,14.10
2022-10-05T11:30:16.743Z,14.10
2022-10-05T11:33:19.294Z,14.00
2022-10-05T11:36:08.933Z,14.00
2022-10-05T11:39:04.175Z,14.00
2022-10-05T11:42:01.228Z,14.00
2022-10-05T11:45:16.318Z,14.10
2022-10-05T11:48:20.948Z,14.00
2022-10-05T11:51:16.142Z,14.10
2022-10-05T11:54:01.645Z,14.20
2022-10-05T11:56:33.601Z,14.30
2022-10-05T11:59:23.747Z,14.40
2022-10-05T12:02:04.336Z,14.40
2022-10-05T12:05:10.771Z,14.50
2022-10-05T12:07:49.560Z,14.50
2022-10-05T12:10:41.165Z,14.50
2022-10-05T12:13:13.288Z,14.60
2022-10-05T12:16:04.909Z,14.70
2022-10-05T12:18:31.835Z,14.80
2022-10-05T12:21:01.401Z,14.90
2022-10-05T12:23:42.532Z,14.90
2022-10-05T12:26:18.802Z,15.00
2022-10-05T12:28:49.532Z,15.10
2022-10-05T12:31:23.365Z,15.10
2022-10-05T12:34:18.700Z,15.20
2022-10-05T12:37:15.130Z,15.20
2022-10-05T12:39:54.329Z,15.30
2022-10-05T12:42:40.876Z,15.30
2022-10-05T12:45:27.495Z,15.30
2022-10-05T12:48:03.794Z,15.30
2022-10-05T12:50:34.480Z,15.30
2022-10-05T12:53:24.620Z,15.30
2022-10-05T12:56:00.411Z,15.30
2022-10-05T12:58:39.224Z,15.40
2022-10-05T13:01:20.791Z,15.50
2022-10-05T13:04:01.613Z,15.50
2022-10-05T13:06:40.807Z,15.60
2022-10-05T13:09:13.410Z,15.80
2022-10-05T13:11:57.814Z,15.90
2022-10-05T13:14:36.762Z,15.90
2022-10-05T13:17:20.909Z,16.00
2022-10-05T13:19:56.415Z,16.10
2022-10-05T13:22:56.398Z,16.20
2022-10-05T13:25:31.275Z,16.40
2022-10-05T13:28:15.526Z,16.50
2022-10-05T13:30:51.424Z,16.50
2022-10-05T13:33:32.210Z,16.60
2022-10-05T13:36:08.470Z,16.70
2022-10-05T13:38:59.834Z,16.70
2022-10-05T13:41:29.937Z,16.70
2022-10-05T13:44:24.880Z,16.70
2022-10-05T13:47:06.669Z,16.80
2022-10-05T13:49:48.809Z,16.70
2022-10-05T13:52:39.327Z,16.70
2022-10-05T13:55:25.169Z,16.70
2022-10-05T13:57:59.040Z,16.60
2022-10-05T14:00:27.441Z,16.60
2022-10-05T14:03:02.831Z,16.50
2022-10-05T14:05:31.876Z,16.40
2022-10-05T14:08:04.981Z,16.40
2022-10-05T14:10:38.404Z,16.40
2022-10-05T14:13:46.328Z,16.40
2022-10-05T14:16:16.479Z,16.30
2022-10-05T14:19:06.876Z,16.20
2022-10-05T14:21:49.788Z,16.20
2022-10-05T14:24:46.633Z,16.00
2022-10-05T14:27:23.987Z,16.00
2022-10-05T14:30:09.587Z,15.90
2022-10-05T14:33:05.603Z,15.90
2022-10-05T14:35:54.114Z,15.90
2022-10-05T14:38:26.500Z,15.80
2022-10-05T14:41:04.037Z,15.80
2022-10-05T14:43:35.109Z,15.80
2022-10-05T14:46:25.411Z,15.80
2022-10-05T14:49:13.562Z,15.90
2022-10-05T14:51:42.443Z,15.80
2022-10-05T14:54:27.729Z,15.90
2022-10-05T14:57:29.271Z,15.90
2022-10-05T15:00:16.745Z,15.90
2022-10-05T15:02:48.039Z,15.90
2022-10-05T15:05:35.505Z,15.90
2022-10-05T15:08:13.417Z,15.90
2022-10-05T15:11:04.896Z,15.90
2022-10-05T15:13:37.797Z,15.90
2022-10-05T15:16:30.308Z,15.90
2022-10-05T15:19:16.083Z,15.80
2022-10-05T15:21:46.313Z,15.80
2022-10-05T15:24:26.501Z,15.80
2022-10-05T15:26:59.109Z,15.80
2022-10-05T15:29:52.046Z,15.70
2022-10-05T15:32:46.750Z,15.70
2022-10-05T15:36:06.437Z,15.70
2022-10-05T15:39:00.250Z,15.60
2022-10-05T15:41:35.916Z,15.50
2022-10-05T15:44:08.330Z,15.50
2022-10-05T15:46:49.570Z,15.50
2022-10-05T15:49:26.793Z,15.40
2022-10-05T15:52:07.625Z,15.40
2022-10-05T15:54:49.896Z,15.30
2022-10-05T15:57:48.160Z,15.30
2022-10-05T16:00:20.863Z,15.30
2022-10-05T16:03:09.639Z,15.20
2022-10-05T16:06:20.895Z,15.20
2022-10-05T16:09:03.665Z,15.20
2022-10-05T16:11:38.768Z,15.20
2022-10-05T16:14:42.830Z,15.20
2022-10-05T16:17:35.354Z,15.20
2022-10-05T16:20:41.070Z,15.10
2022-10-05T16:23:17.753Z,15.10
2022-10-05T16:25:54.182Z,15.10
2022-10-05T16:28:39.290Z,15.10
2022-10-05T16:31:18.819Z,15.10
2022-10-05T16:34:17.273Z,15.10
2022-10-05T16:36:50.016Z,15.00
2022-10-05T16:39:23.915Z,15.00
2022-10-05T16:42:05.418Z,15.00
2022-10-05T16:44:44.377Z,15.00
2022-10-05T16:47:37.366Z,14.90
2022-10-05T16:50:10.666Z,14.90
2022-10-05T16:52:41.787Z,14.90
2022-10-05T16:55:20.018Z,14.90
2022-10-05T16:57:55.733Z,14.90
2022-10-05T17:00:25.645Z,14.90
2022-10-05T17:03:00.800Z,14.90
2022-10-05T17:05:59.164Z,14.90
2022-10-05T17:08:42.015Z,14.90
2022-10-05T17:11:45.756Z,14.80
2022-10-05T17:14:43.859Z,14.80
2022-10-05T17:17:29.411Z,14.80
2022-10-05T17:20:23.613Z,14.80
2022-10-05T17:23:29.309Z,14.80
2022-10-05T17:26:16.316Z,14.70
2022-10-05T17:28:52.257Z,14.70
2022-10-05T17:31:22.326Z,14.70
2022-10-05T17:34:15.166Z,14.60
2022-10-05T17:36:57.950Z,14.60
2022-10-05T17:39:46.670Z,14.60
2022-10-05T17:42:34.212Z,14.50
2022-10-05T17:45:21.142Z,14.50
2022-10-05T17:48:10.055Z,14.40
2022-10-05T17:51:07.051Z,14.40
2022-10-05T17:53:52.444Z,14.40
2022-10-05T17:56:22.097Z,14.40
2022-10-05T17:58:54.829Z,14.40
2022-10-05T18:01:33.942Z,14.30
2022-10-05T18:04:13.253Z,14.30
2022-10-05T18:06:44.832Z,14.40
2022-10-05T18:09:20.276Z,14.30
2022-10-05T18:12:03.075Z,14.40
2022-10-05T18:14:55.749Z,14.30
2022-10-05T18:17:51.481Z,14.30
2022-10-05T18:20:24.111Z,14.30
2022-10-05T18:22:53.689Z,14.40
2022-10-05T18:25:42.461Z,14.40
2022-10-05T18:28:29.232Z,14.40
2022-10-05T18:31:21.342Z,14.40
2022-10-05T18:34:11.601Z,14.40
2022-10-05T18:37:07.185Z,14.40
2022-10-05T18:39:58.332Z,14.40
2022-10-05T18:42:54.272Z,14.40
2022-10-05T18:45:37.839Z,14.40
2022-10-05T18:48:04.948Z,14.40
2022-10-05T18:51:03.327Z,14.40
2022-10-05T18:53:35.931Z,14.30
2022-10-05T18:56:19.465Z,14.30
2022-10-05T18:58:56.940Z,14.30
2022-10-05T19:01:42.495Z,14.20
2022-10-05T19:04:34.176Z,14.20
2022-10-05T19:07:19.319Z,14.20
2022-10-05T19:10:19.734Z,14.20
2022-10-05T19:13:30.928Z,14.20
2022-10-05T19:16:38.260Z,14.20
2022-10-05T19:19:33.515Z,14.20
2022-10-05T19:22:12.714Z,14.20
2022-10-05T19:24:43.205Z,14.10
2022-10-05T19:27:34.644Z,14.10
2022-10-05T19:30:23.978Z,14.00
2022-10-05T19:33:28.602Z,13.90
2022-10-05T19:36:07.438Z,13.90
2022-10-05T19:39:00.690Z,13.80
2022-10-05T19:41:35.577Z,13.80
2022-10-05T19:44:38.427Z,13.70
2022-10-05T19:47:31.865Z,13.60
2022-10-05T19:50:18.576Z,13.60
2022-10-05T19:52:50.235Z,13.50
2022-10-05T19:55:26.389Z,13.60
2022-10-05T19:57:59.889Z,13.50
2022-10-05T20:00:33.930Z,13.50
2022-10-05T20:03:12.420Z,13.60
2022-10-05T20:05:40.461Z,13.50
2022-10-05T20:08:12.341Z,13.40
2022-10-05T20:10:39.192Z,13.40
2022-10-05T20:13:08.693Z,13.30
2022-10-05T20:15:55.276Z,13.30
2022-10-05T20:19:07.824Z,13.20
2022-10-05T20:21:41.936Z,13.10
2022-10-05T20:24:51.471Z,13.00
2022-10-05T20:27:42.799Z,12.90
2022-10-05T20:30:12.364Z,12.90
2022-10-05T20:32:39.224Z,12.90
2022-10-05T20:35:07.013Z,12.90
2022-10-05T20:37:34.133Z,12.90
2022-10-05T20:40:01.065Z,12.90
2022-10-05T20:42:28.029Z,12.90
2022-10-05T20:44:57.030Z,12.80
2022-10-05T20:47:25.444Z,12.70
2022-10-05T20:49:55.533Z,12.70
2022-10-05T20:52:25.635Z,12.70
2022-10-05T20:54:56.690Z,12.70
2022-10-05T20:57:24.244Z,12.70
2022-10-05T20:59:51.667Z,12.70
2022-10-05T21:02:19.728Z,12.70
2022-10-05T21:04:49.913Z,12.70
2022-10-05T21:07:19.671Z,12.70
2022-10-05T21:09:47.011Z,12.60
2022-10-05T21:12:14.568Z,12.60
2022-10-05T21:14:41.535Z,12.60
2022-10-05T21:17:09.469Z,12.60
2022-10-05T21:19:40.247Z,12.50
2022-10-05T21:22:09.137Z,12.50
2022-10-05T21:24:37.879Z,12.50
2022-10-05T21:27:05.270Z,12.50
2022-10-05T21:29:33.446Z,12.40
2022-10-05T21:32:00.984Z,12.40
2022-10-05T21:34:28.793Z,12.40
2022-10-05T21:36:55.820Z,12.40
2022-10-05T21:39:23.598Z,12.30
2022-10-05T21:41:50.532Z,12.30
2022-10-05T21:44:18.234Z,12.30
2022-10-05T21:46:46.093Z,12.30
2022-10-05T21:49:17.478Z,12.20
2022-10-05T21:51:47.275Z,12.20
2022-10-05T21:54:18.629Z,12.20
2022-10-05T21:56:50.295Z,12.20
2022-10-05T21:59:20.213Z,12.10
2022-10-05T22:01:47.022Z,12.10
2022-10-05T22:04:15.099Z,12.10
2022-10-05T22:06:42.506Z,12.00
2022-10-05T22:09:09.738Z,12.00
2022-10-05T22:11:36.673Z,11.90
2022-10-05T22:14:03.685Z,11.90
2022-10-05T22:16:34.879Z,11.90
2022-10-05T22:19:05.110Z,11.80
2022-10-05T22:21:34.292Z,11.70
2022-10-05T22:24:02.720Z,11.70
2022-10-05T22:26:29.682Z,11.60
2022-10-05T22:28:57.055Z,11.60
2022-10-05T22:31:24.537Z,11.60
2022-10-05T22:33:51.678Z,11.50
2022-10-05T22:36:19.043Z,11.50
2022-10-05T22:38:47.518Z,11.40
2022-10-05T22:41:15.402Z,11.40
2022-10-05T22:43:42.552Z,11.30
2022-10-05T22:46:10.915Z,11.30
2022-10-05T22:48:38.089Z,11.30
2022-10-05T22:51:05.639Z,11.30
2022-10-05T22:53:32.802Z,11.30
2022-10-05T22:56:08.174Z,11.30
2022-10-05T22:58:36.050Z,11.20
2022-10-05T23:01:08.676Z,11.20
2022-10-05T23:03:36.017Z,11.20
2022-10-05T23:06:05.950Z,11.20
2022-10-05T23:08:35.204Z,11.20
2022-10-05T23:11:14.302Z,11.20
2022-10-05T23:13:41.150Z,11.20
2022-10-05T23:16:13.357Z,11.20
2022-10-05T23:18:40.395Z,11.30
2022-10-05T23:21:08.600Z,11.30
2022-10-05T23:23:39.577Z,11.30
2022-10-05T23:26:08.633Z,11.20
2022-10-05T23:28:35.637Z,11.10
2022-10-05T23:31:05.641Z,11.10
2022-10-05T23:33:33.654Z,11.00
2022-10-05T23:36:14.327Z,11.10
2022-10-05T23:38:41.140Z,11.10
2022-10-05T23:41:08.942Z,11.10
2022-10-05T23:43:36.807Z,11.10
2022-10-05T23:46:05.447Z,11.10
2022-10-05T23:48:32.750Z,11.10
2022-10-05T23:50:59.835Z,11.00
2022-10-05T23:53:26.738Z,11.00
2022-10-05T23:55:54.404Z,11.00
2022-10-05T23:58:21.850Z,11.00
